createdAt,value
2018-10-15T00:00:18.872Z,91.74
2018-10-15T00:01:18.916Z,91.74
2018-10-15T00:02:19.096Z,92.03
2018-10-15T00:03:19.266Z,92.03
2018-10-15T00:04:19.439Z,91.83
2018-10-15T00:05:19.617Z,91.46
2018-10-15T00:06:19.784Z,91.46
2018-10-15T00:07:19.957Z,91.74
2018-10-15T00:08:20.137Z,91.74
2018-10-15T00:09:20.309Z,91.79
2018-10-15T00:10:20.477Z,91.64
2018-10-15T00:11:20.650Z,91.64
2018-10-15T00:12:20.824Z,91.79
2018-10-15T00:13:20.988Z,91.60
2018-10-15T00:14:21.166Z,91.50
2018-10-15T00:15:21.335Z,90.84
2018-10-15T00:16:21.512Z,91.22
2018-10-15T00:17:21.686Z,90.55
2018-10-15T00:18:21.859Z,90.55
2018-10-15T00:19:22.030Z,90.64
2018-10-15T00:20:22.210Z,90.45
2018-10-15T00:21:22.385Z,90.26
2018-10-15T00:22:22.554Z,90.17
2018-10-15T00:23:22.737Z,91.13
2018-10-15T00:24:22.902Z,91.03
2018-10-15T00:25:23.085Z,91.13
2018-10-15T00:26:23.254Z,91.03
2018-10-15T00:27:23.428Z,90.74
2018-10-15T00:28:23.597Z,91.03
2018-10-15T00:29:23.768Z,90.45
2018-10-15T00:30:23.949Z,90.45
2018-10-15T00:31:24.119Z,90.08
2018-10-15T00:32:24.301Z,89.98
2018-10-15T00:33:24.469Z,89.79
2018-10-15T00:34:24.646Z,89.69
2018-10-15T00:35:24.819Z,90.36
2018-10-15T00:36:24.989Z,90.26
2018-10-15T00:37:25.174Z,90.26
2018-10-15T00:38:25.355Z,90.55
2018-10-15T00:39:25.552Z,90.93
2018-10-15T00:40:25.704Z,90.26
2018-10-15T00:41:25.877Z,90.17
2018-10-15T00:42:26.043Z,90.36
2018-10-15T00:43:26.217Z,90.36
2018-10-15T00:44:26.390Z,90.64
2018-10-15T00:45:26.560Z,90.64
2018-10-15T00:46:26.727Z,90.26
2018-10-15T00:47:26.904Z,89.98
2018-10-15T00:48:27.083Z,89.69
2018-10-15T00:49:27.260Z,89.98
2018-10-15T00:50:27.441Z,89.69
2018-10-15T00:51:27.615Z,89.98
2018-10-15T00:52:27.790Z,89.98
2018-10-15T00:53:27.969Z,89.89
2018-10-15T00:54:28.140Z,89.79
2018-10-15T00:55:28.316Z,89.98
2018-10-15T00:56:28.499Z,90.36
2018-10-15T00:57:28.674Z,90.36
2018-10-15T00:58:28.846Z,90.74
2018-10-15T00:59:29.017Z,90.17
2018-10-15T01:00:29.190Z,89.79
2018-10-15T01:01:29.360Z,90.17
2018-10-15T01:02:29.533Z,89.98
2018-10-15T01:03:29.706Z,89.79
2018-10-15T01:04:29.879Z,89.60
2018-10-15T01:05:30.043Z,89.31
2018-10-15T01:06:30.218Z,89.12
2018-10-15T01:07:30.387Z,89.03
2018-10-15T01:08:30.560Z,89.60
2018-10-15T01:09:30.727Z,89.40
2018-10-15T01:10:30.894Z,89.60
2018-10-15T01:11:31.070Z,89.79
2018-10-15T01:12:31.235Z,89.89
2018-10-15T01:13:31.430Z,89.84
2018-10-15T01:14:31.596Z,89.84
2018-10-15T01:15:31.773Z,90.22
2018-10-15T01:16:31.944Z,89.65
2018-10-15T01:17:32.117Z,89.94
2018-10-15T01:18:32.286Z,89.94
2018-10-15T01:19:32.456Z,89.46
2018-10-15T01:20:32.637Z,89.84
2018-10-15T01:21:32.795Z,90.22
2018-10-15T01:22:32.968Z,90.12
2018-10-15T01:23:33.147Z,90.22
2018-10-15T01:24:33.320Z,89.94
2018-10-15T01:25:33.485Z,89.65
2018-10-15T01:26:33.658Z,90.03
2018-10-15T01:27:33.829Z,89.84
2018-10-15T01:28:33.999Z,90.31
2018-10-15T01:29:34.187Z,90.50
2018-10-15T01:30:34.353Z,90.31
2018-10-15T01:31:34.531Z,90.31
2018-10-15T01:32:34.696Z,90.70
2018-10-15T01:33:34.875Z,90.22
2018-10-15T01:34:35.043Z,91.08
2018-10-15T01:35:35.215Z,90.98
2018-10-15T01:36:35.391Z,90.89
2018-10-15T01:37:35.562Z,90.89
2018-10-15T01:38:35.957Z,90.60
2018-10-15T01:39:35.876Z,90.50
2018-10-15T01:40:36.052Z,90.98
2018-10-15T01:41:36.224Z,90.79
2018-10-15T01:42:36.399Z,91.17
2018-10-15T01:43:36.578Z,91.08
2018-10-15T01:44:36.749Z,90.70
2018-10-15T01:45:36.926Z,91.74
2018-10-15T01:46:37.093Z,91.51
2018-10-15T01:47:37.262Z,91.41
2018-10-15T01:48:37.434Z,91.94
2018-10-15T01:49:37.615Z,91.74
2018-10-15T01:50:37.782Z,91.99
2018-10-15T01:51:37.965Z,91.65
2018-10-15T01:52:38.138Z,91.08
2018-10-15T01:53:38.318Z,91.08
2018-10-15T01:54:38.491Z,90.79
2018-10-15T01:55:38.670Z,90.75
2018-10-15T01:56:38.847Z,90.94
2018-10-15T01:57:39.016Z,91.89
2018-10-15T01:58:39.194Z,91.36
2018-10-15T01:59:43.081Z,91.51
2018-10-15T02:00:43.657Z,91.84
2018-10-15T02:01:44.181Z,91.08
2018-10-15T02:02:44.312Z,90.84
2018-10-15T02:03:44.492Z,90.84
2018-10-15T02:04:43.382Z,91.08
2018-10-15T02:05:44.958Z,90.98
2018-10-15T02:06:44.907Z,90.70
2018-10-15T02:07:44.413Z,91.08
2018-10-15T02:08:42.140Z,90.89
2018-10-15T02:09:41.421Z,90.70
2018-10-15T02:10:46.941Z,90.60
2018-10-15T02:11:41.960Z,90.31
2018-10-15T02:12:44.601Z,90.17
2018-10-15T02:13:44.731Z,90.17
2018-10-15T02:14:44.594Z,90.46
2018-10-15T02:15:45.917Z,91.13
2018-10-15T02:16:45.066Z,90.56
2018-10-15T02:17:44.785Z,91.13
2018-10-15T02:18:47.212Z,91.60
2018-10-15T02:19:42.968Z,91.79
2018-10-15T02:20:44.298Z,91.60
2018-10-15T02:21:42.968Z,91.89
2018-10-15T02:22:43.133Z,91.41
2018-10-15T02:23:43.302Z,91.79
2018-10-15T02:24:43.475Z,91.79
2018-10-15T02:25:43.651Z,91.60
2018-10-15T02:26:43.824Z,91.79
2018-10-15T02:27:43.993Z,91.79
2018-10-15T02:28:44.169Z,91.70
2018-10-15T02:29:44.341Z,91.79
2018-10-15T02:30:44.509Z,92.84
2018-10-15T02:31:44.684Z,92.46
2018-10-15T02:32:44.859Z,92.84
2018-10-15T02:33:45.032Z,92.84
2018-10-15T02:34:45.207Z,92.46
2018-10-15T02:35:45.385Z,92.55
2018-10-15T02:36:45.556Z,92.94
2018-10-15T02:37:45.740Z,91.89
2018-10-15T02:38:45.913Z,91.70
2018-10-15T02:39:46.094Z,91.89
2018-10-15T02:40:46.257Z,91.60
2018-10-15T02:41:46.426Z,90.94
2018-10-15T02:42:46.597Z,90.75
2018-10-15T02:43:46.769Z,91.03
2018-10-15T02:44:46.940Z,90.94
2018-10-15T02:45:50.624Z,90.75
2018-10-15T02:46:50.048Z,91.22
2018-10-15T02:47:51.149Z,91.41
2018-10-15T02:48:50.919Z,91.51
2018-10-15T02:49:50.491Z,91.79
2018-10-15T02:50:52.258Z,91.13
2018-10-15T02:51:47.976Z,91.13
2018-10-15T02:52:48.146Z,91.03
2018-10-15T02:53:48.320Z,90.65
2018-10-15T02:54:48.509Z,90.84
2018-10-15T02:55:48.663Z,91.13
2018-10-15T02:56:48.834Z,90.84
2018-10-15T02:57:49.007Z,90.84
2018-10-15T02:58:49.181Z,90.94
2018-10-15T02:59:49.363Z,90.84
2018-10-15T03:00:49.535Z,91.13
2018-10-15T03:01:49.705Z,90.75
2018-10-15T03:02:49.874Z,91.03
2018-10-15T03:03:50.045Z,91.13
2018-10-15T03:04:50.222Z,91.99
2018-10-15T03:05:50.398Z,92.08
2018-10-15T03:06:50.571Z,91.13
2018-10-15T03:07:50.745Z,91.56
2018-10-15T03:08:50.912Z,91.03
2018-10-15T03:09:51.084Z,90.70
2018-10-15T03:10:51.263Z,90.89
2018-10-15T03:11:51.440Z,91.17
2018-10-15T03:12:51.618Z,90.99
2018-10-15T03:13:51.808Z,90.99
2018-10-15T03:14:51.980Z,91.31
2018-10-15T03:15:52.149Z,91.75
2018-10-15T03:16:52.326Z,91.37
2018-10-15T03:17:52.577Z,91.37
2018-10-15T03:18:52.695Z,91.94
2018-10-15T03:19:52.934Z,91.27
2018-10-15T03:20:53.033Z,91.46
2018-10-15T03:21:53.202Z,91.46
2018-10-15T03:22:53.375Z,91.56
2018-10-15T03:23:53.546Z,91.65
2018-10-15T03:24:53.719Z,90.89
2018-10-15T03:25:53.889Z,90.61
2018-10-15T03:26:54.058Z,91.27
2018-10-15T03:27:54.235Z,90.61
2018-10-15T03:28:54.413Z,90.80
2018-10-15T03:29:54.589Z,90.99
2018-10-15T03:30:54.756Z,90.89
2018-10-15T03:31:54.918Z,91.37
2018-10-15T03:32:55.096Z,91.75
2018-10-15T03:33:55.262Z,91.65
2018-10-15T03:34:55.432Z,91.75
2018-10-15T03:35:55.602Z,91.94
2018-10-15T03:36:55.789Z,91.46
2018-10-15T03:37:55.968Z,91.75
2018-10-15T03:38:56.135Z,91.46
2018-10-15T03:39:56.304Z,91.65
2018-10-15T03:40:56.473Z,91.65
2018-10-15T03:41:56.645Z,91.84
2018-10-15T03:42:56.816Z,91.56
2018-10-15T03:43:56.991Z,91.84
2018-10-15T03:44:57.166Z,91.75
2018-10-15T03:45:57.348Z,90.99
2018-10-15T03:46:57.520Z,91.37
2018-10-15T03:47:57.696Z,91.37
2018-10-15T03:48:57.867Z,91.94
2018-10-15T03:49:58.043Z,91.37
2018-10-15T03:50:58.212Z,91.65
2018-10-15T03:51:58.379Z,92.22
2018-10-15T03:52:58.545Z,91.80
2018-10-15T03:53:58.717Z,92.46
2018-10-15T03:54:58.885Z,92.56
2018-10-15T03:55:59.056Z,92.94
2018-10-15T03:56:59.248Z,92.56
2018-10-15T03:57:59.400Z,92.60
2018-10-15T03:58:59.568Z,92.94
2018-10-15T03:59:59.740Z,92.75
2018-10-15T04:00:59.910Z,92.56
2018-10-15T04:02:00.078Z,92.75
2018-10-15T04:03:00.253Z,93.70
2018-10-15T04:04:00.424Z,93.70
2018-10-15T04:05:00.604Z,93.04
2018-10-15T04:06:00.763Z,92.46
2018-10-15T04:07:00.934Z,92.94
2018-10-15T04:08:01.107Z,93.04
2018-10-15T04:09:01.287Z,92.94
2018-10-15T04:10:01.452Z,92.84
2018-10-15T04:11:01.652Z,92.94
2018-10-15T04:12:01.815Z,92.65
2018-10-15T04:13:01.993Z,92.75
2018-10-15T04:14:02.163Z,92.84
2018-10-15T04:15:02.336Z,92.56
2018-10-15T04:16:02.511Z,92.36
2018-10-15T04:17:02.680Z,92.65
2018-10-15T04:18:02.862Z,91.89
2018-10-15T04:19:03.029Z,92.08
2018-10-15T04:20:03.210Z,91.89
2018-10-15T04:21:03.371Z,92.65
2018-10-15T04:22:03.543Z,92.56
2018-10-15T04:23:03.719Z,92.36
2018-10-15T04:24:03.894Z,92.84
2018-10-15T04:25:04.067Z,92.84
2018-10-15T04:26:04.237Z,92.56
2018-10-15T04:27:04.403Z,92.65
2018-10-15T04:28:04.580Z,92.84
2018-10-15T04:29:04.751Z,92.56
2018-10-15T04:30:04.944Z,93.51
2018-10-15T04:31:05.115Z,93.32
2018-10-15T04:32:05.292Z,93.70
2018-10-15T04:33:05.464Z,93.89
2018-10-15T04:34:05.635Z,93.51
2018-10-15T04:35:05.809Z,93.79
2018-10-15T04:36:05.993Z,93.70
2018-10-15T04:37:06.170Z,94.08
2018-10-15T04:38:06.349Z,93.79
2018-10-15T04:39:06.519Z,93.70
2018-10-15T04:40:06.690Z,93.51
2018-10-15T04:41:06.870Z,93.41
2018-10-15T04:42:07.043Z,92.65
2018-10-15T04:43:07.230Z,92.65
2018-10-15T04:44:07.404Z,92.65
2018-10-15T04:45:07.585Z,92.56
2018-10-15T04:46:07.760Z,92.65
2018-10-15T04:47:07.928Z,92.65
2018-10-15T04:48:08.105Z,92.65
2018-10-15T04:49:08.425Z,92.65
2018-10-15T04:50:08.628Z,92.65
2018-10-15T04:51:08.629Z,92.65
2018-10-15T04:52:08.800Z,92.56
2018-10-15T04:53:08.979Z,92.36
2018-10-15T04:54:09.146Z,92.27
2018-10-15T04:55:09.380Z,92.27
2018-10-15T04:56:09.507Z,92.46
2018-10-15T04:57:09.659Z,92.75
2018-10-15T04:58:09.835Z,92.36
2018-10-15T04:59:10.009Z,92.46
2018-10-15T05:00:10.393Z,92.84
2018-10-15T05:01:10.361Z,92.84
2018-10-15T05:02:10.538Z,92.75
2018-10-15T05:03:10.708Z,92.56
2018-10-15T05:04:10.883Z,92.65
2018-10-15T05:05:11.051Z,92.65
2018-10-15T05:06:11.284Z,92.56
2018-10-15T05:07:15.965Z,92.75
2018-10-15T05:08:11.615Z,92.46
2018-10-15T05:09:11.793Z,92.75
2018-10-15T05:10:11.969Z,92.08
2018-10-15T05:11:12.148Z,91.42
2018-10-15T05:12:12.340Z,91.80
2018-10-15T05:13:12.497Z,91.99
2018-10-15T05:14:12.672Z,91.80
2018-10-15T05:15:12.839Z,91.51
2018-10-15T05:16:13.011Z,92.08
2018-10-15T05:17:13.178Z,92.08
2018-10-15T05:18:13.359Z,91.51
2018-10-15T05:19:13.522Z,91.70
2018-10-15T05:20:13.708Z,91.70
2018-10-15T05:21:14.020Z,92.46
2018-10-15T05:22:14.066Z,92.46
2018-10-15T05:23:14.237Z,92.65
2018-10-15T05:24:14.472Z,93.41
2018-10-15T05:25:14.603Z,93.13
2018-10-15T05:26:14.769Z,93.60
2018-10-15T05:27:14.936Z,93.41
2018-10-15T05:28:15.133Z,93.13
2018-10-15T05:29:15.302Z,93.41
2018-10-15T05:30:15.562Z,93.70
2018-10-15T05:31:15.711Z,93.70
2018-10-15T05:32:15.876Z,93.79
2018-10-15T05:33:16.053Z,93.89
2018-10-15T05:34:16.228Z,93.60
2018-10-15T05:35:16.402Z,93.98
2018-10-15T05:36:16.586Z,93.51
2018-10-15T05:37:16.736Z,93.60
2018-10-15T05:38:16.919Z,93.32
2018-10-15T05:39:17.080Z,92.94
2018-10-15T05:40:17.250Z,92.65
2018-10-15T05:41:17.672Z,92.27
2018-10-15T05:42:17.935Z,91.99
2018-10-15T05:43:19.303Z,92.75
2018-10-15T05:44:20.784Z,92.36
2018-10-15T05:45:18.457Z,92.56
2018-10-15T05:46:18.255Z,92.84
2018-10-15T05:47:18.422Z,92.65
2018-10-15T05:48:18.643Z,92.56
2018-10-15T05:49:19.053Z,92.65
2018-10-15T05:50:18.983Z,92.36
2018-10-15T05:51:19.348Z,92.36
2018-10-15T05:52:19.324Z,92.46
2018-10-15T05:53:19.492Z,92.36
2018-10-15T05:54:19.752Z,91.89
2018-10-15T05:55:19.844Z,92.18
2018-10-15T05:56:20.017Z,91.89
2018-10-15T05:57:20.203Z,91.51
2018-10-15T05:58:20.360Z,91.80
2018-10-15T05:59:20.538Z,91.70
2018-10-15T06:00:20.803Z,91.32
2018-10-15T06:01:20.880Z,91.32
2018-10-15T06:02:21.056Z,91.70
2018-10-15T06:03:21.220Z,91.70
2018-10-15T06:04:21.396Z,91.89
2018-10-15T06:05:21.563Z,91.80
2018-10-15T06:06:21.832Z,91.80
2018-10-15T06:07:21.919Z,91.42
2018-10-15T06:08:22.114Z,91.32
2018-10-15T06:09:22.269Z,91.22
2018-10-15T06:10:22.436Z,91.70
2018-10-15T06:11:22.612Z,91.70
2018-10-15T06:12:22.901Z,91.13
2018-10-15T06:13:23.016Z,91.56
2018-10-15T06:14:23.137Z,91.85
2018-10-15T06:15:23.311Z,91.94
2018-10-15T06:16:23.487Z,92.41
2018-10-15T06:17:23.645Z,92.70
2018-10-15T06:18:23.817Z,92.61
2018-10-15T06:19:23.998Z,93.55
2018-10-15T06:20:24.171Z,93.94
2018-10-15T06:21:24.335Z,93.55
2018-10-15T06:22:24.505Z,93.94
2018-10-15T06:23:24.666Z,94.32
2018-10-15T06:24:25.036Z,94.46
2018-10-15T06:25:25.058Z,94.18
2018-10-15T06:26:25.239Z,93.79
2018-10-15T06:27:25.518Z,93.32
2018-10-15T06:28:25.759Z,92.65
2018-10-15T06:29:25.711Z,92.56
2018-10-15T06:30:26.275Z,92.60
2018-10-15T06:31:26.081Z,92.65
2018-10-15T06:32:26.270Z,92.08
2018-10-15T06:33:26.432Z,91.84
2018-10-15T06:34:26.601Z,91.56
2018-10-15T06:35:26.788Z,91.94
2018-10-15T06:36:26.966Z,90.99
2018-10-15T06:37:27.194Z,90.70
2018-10-15T06:38:27.314Z,91.17
2018-10-15T06:39:27.491Z,91.75
2018-10-15T06:40:27.665Z,91.46
2018-10-15T06:41:27.860Z,90.89
2018-10-15T06:42:28.122Z,90.89
2018-10-15T06:43:28.189Z,90.42
2018-10-15T06:44:28.568Z,89.84
2018-10-15T06:45:28.957Z,89.56
2018-10-15T06:46:28.697Z,89.65
2018-10-15T06:47:28.807Z,90.22
2018-10-15T06:48:28.982Z,90.89
2018-10-15T06:49:29.151Z,90.70
2018-10-15T06:50:29.620Z,90.42
2018-10-15T06:51:29.644Z,90.61
2018-10-15T06:52:29.618Z,91.17
2018-10-15T06:53:29.833Z,90.42
2018-10-15T06:54:29.984Z,91.03
2018-10-15T06:55:30.177Z,90.94
2018-10-15T06:56:30.352Z,91.13
2018-10-15T06:57:30.519Z,90.84
2018-10-15T06:58:30.981Z,90.56
2018-10-15T06:59:31.029Z,90.17
2018-10-15T07:00:31.225Z,90.36
2018-10-15T07:01:31.195Z,90.80
2018-10-15T07:02:31.517Z,90.46
2018-10-15T07:03:31.494Z,90.46
2018-10-15T07:04:31.677Z,90.17
2018-10-15T07:05:31.840Z,90.56
2018-10-15T07:06:32.289Z,90.56
2018-10-15T07:07:32.149Z,90.94
2018-10-15T07:08:32.506Z,90.17
2018-10-15T07:09:32.640Z,89.61
2018-10-15T07:10:32.901Z,89.79
2018-10-15T07:11:32.977Z,89.36
2018-10-15T07:12:33.497Z,89.36
2018-10-15T07:13:33.105Z,89.65
2018-10-15T07:14:33.325Z,89.26
2018-10-15T07:15:33.491Z,89.36
2018-10-15T07:16:33.882Z,88.89
2018-10-15T07:17:34.760Z,88.70
2018-10-15T07:18:33.937Z,88.26
2018-10-15T07:19:34.478Z,87.31
2018-10-15T07:20:34.648Z,86.59
2018-10-15T07:21:34.743Z,85.73
2018-10-15T07:22:34.972Z,84.88
2018-10-15T07:23:34.901Z,84.25
2018-10-15T07:24:35.035Z,83.48
2018-10-15T07:25:35.284Z,82.91
2018-10-15T07:26:35.290Z,82.48
2018-10-15T07:27:35.774Z,80.61
2018-10-15T07:28:35.859Z,78.93
2018-10-15T07:29:35.913Z,77.63
2018-10-15T07:30:36.175Z,76.04
2018-10-15T07:31:36.003Z,74.84
2018-10-15T07:32:36.187Z,72.67
2018-10-15T07:33:36.412Z,70.15
2018-10-15T07:34:36.573Z,68.37
2018-10-15T07:35:36.745Z,66.64
2018-10-15T07:36:36.955Z,65.08
2018-10-15T07:37:37.142Z,63.45
2018-10-15T07:38:37.312Z,63.35
2018-10-15T07:39:37.597Z,63.06
2018-10-15T07:40:37.691Z,62.68
2018-10-15T07:41:37.916Z,62.39
2018-10-15T07:42:38.097Z,62.48
2018-10-15T07:43:38.288Z,63.42
2018-10-15T07:44:38.487Z,63.76
2018-10-15T07:45:38.673Z,64.63
2018-10-15T07:46:38.923Z,65.17
2018-10-15T07:47:39.039Z,65.62
2018-10-15T07:48:39.878Z,66.74
2018-10-15T07:49:40.034Z,68.52
2018-10-15T07:50:39.741Z,69.48
2018-10-15T07:51:39.789Z,70.68
2018-10-15T07:52:39.969Z,71.64
2018-10-15T07:53:40.162Z,71.83
2018-10-15T07:54:40.339Z,72.22
2018-10-15T07:55:40.518Z,72.12
2018-10-15T07:56:40.882Z,72.41
2018-10-15T07:57:40.959Z,72.60
2018-10-15T07:58:41.507Z,72.88
2018-10-15T07:59:41.352Z,73.80
2018-10-15T08:00:41.623Z,74.85
2018-10-15T08:01:41.899Z,74.95
2018-10-15T08:02:41.798Z,75.20
2018-10-15T08:03:42.248Z,76.29
2018-10-15T08:04:42.436Z,76.92
2018-10-15T08:05:42.345Z,77.21
2018-10-15T08:06:43.077Z,77.36
2018-10-15T08:07:43.191Z,78.22
2018-10-15T08:08:44.335Z,79.08
2018-10-15T08:09:44.368Z,78.89
2018-10-15T08:10:43.509Z,79.65
2018-10-15T08:11:43.190Z,80.13
2018-10-15T08:12:43.418Z,80.22
2018-10-15T08:13:44.262Z,80.99
2018-10-15T08:14:43.721Z,80.99
2018-10-15T08:15:44.083Z,81.66
2018-10-15T08:16:44.017Z,81.37
2018-10-15T08:17:44.244Z,81.76
2018-10-15T08:18:44.343Z,81.66
2018-10-15T08:19:44.494Z,81.27
2018-10-15T08:20:44.737Z,82.61
2018-10-15T08:21:44.842Z,82.61
2018-10-15T08:22:45.084Z,83.18
2018-10-15T08:23:45.241Z,82.81
2018-10-15T08:24:45.417Z,83.28
2018-10-15T08:25:45.588Z,83.04
2018-10-15T08:26:45.765Z,83.04
2018-10-15T08:27:45.953Z,83.23
2018-10-15T08:28:46.115Z,83.42
2018-10-15T08:29:46.302Z,82.56
2018-10-15T08:30:46.501Z,82.89
2018-10-15T08:31:46.718Z,82.84
2018-10-15T08:32:46.893Z,82.12
2018-10-15T08:33:47.058Z,82.31
2018-10-15T08:34:47.321Z,82.31
2018-10-15T08:35:47.442Z,81.84
2018-10-15T08:36:47.624Z,81.07
2018-10-15T08:37:47.796Z,81.16
2018-10-15T08:38:47.966Z,81.26
2018-10-15T08:39:48.143Z,81.36
2018-10-15T08:40:48.553Z,81.65
2018-10-15T08:41:48.495Z,81.30
2018-10-15T08:42:48.647Z,80.73
2018-10-15T08:43:51.755Z,80.44
2018-10-15T08:44:50.470Z,79.96
2018-10-15T08:45:49.962Z,79.33
2018-10-15T08:46:50.492Z,78.66
2018-10-15T08:47:51.362Z,77.75
2018-10-15T08:48:50.376Z,77.11
2018-10-15T08:49:53.209Z,75.68
2018-10-15T08:50:52.352Z,75.33
2018-10-15T08:51:51.015Z,74.51
2018-10-15T08:52:51.358Z,73.93
2018-10-15T08:53:51.747Z,73.26
2018-10-15T08:54:51.537Z,72.97
2018-10-15T08:55:52.469Z,73.00
2018-10-15T08:56:53.522Z,73.20
2018-10-15T08:57:52.829Z,73.10
2018-10-15T08:58:52.665Z,73.20
2018-10-15T08:59:54.029Z,72.63
2018-10-15T09:00:52.798Z,72.18
2018-10-15T09:01:54.788Z,70.20
2018-10-15T09:02:52.987Z,68.70
2018-10-15T09:03:52.003Z,67.48
2018-10-15T09:04:53.626Z,66.17
2018-10-15T09:05:52.624Z,65.53
2018-10-15T09:06:52.900Z,63.73
2018-10-15T09:07:53.751Z,62.80
2018-10-15T09:08:54.315Z,61.29
2018-10-15T09:09:54.636Z,60.80
2018-10-15T09:10:54.614Z,59.84
2018-10-15T09:11:55.010Z,59.39
2018-10-15T09:12:54.629Z,58.94
2018-10-15T09:13:55.523Z,58.45
2018-10-15T09:14:54.232Z,57.32
2018-10-15T09:15:54.999Z,56.68
2018-10-15T09:16:56.170Z,56.10
2018-10-15T09:17:55.804Z,55.55
2018-10-15T09:18:56.162Z,55.29
2018-10-15T09:19:55.831Z,54.61
2018-10-15T09:20:55.781Z,53.28
2018-10-15T09:21:56.983Z,53.02
2018-10-15T09:22:56.651Z,52.85
2018-10-15T09:23:57.338Z,52.08
2018-10-15T09:24:57.168Z,51.42
2018-10-15T09:25:57.335Z,50.74
2018-10-15T09:26:56.878Z,50.55
2018-10-15T09:27:56.966Z,49.61
2018-10-15T09:28:57.595Z,49.70
2018-10-15T09:29:57.510Z,49.24
2018-10-15T09:30:58.316Z,48.83
2018-10-15T09:31:57.988Z,49.05
2018-10-15T09:32:57.704Z,48.10
2018-10-15T09:33:59.263Z,48.10
2018-10-15T09:34:58.568Z,48.10
2018-10-15T09:35:59.433Z,48.08
2018-10-15T09:36:58.521Z,48.49
2018-10-15T09:37:59.416Z,47.60
2018-10-15T09:38:59.261Z,47.81
2018-10-15T09:39:59.777Z,48.20
2018-10-15T09:41:00.346Z,48.71
2018-10-15T09:41:59.798Z,48.32
2018-10-15T09:43:00.014Z,48.42
2018-10-15T09:44:00.018Z,48.44
2018-10-15T09:44:59.959Z,47.47
2018-10-15T09:46:00.483Z,47.57
2018-10-15T09:46:59.415Z,47.66
2018-10-15T09:47:59.863Z,47.16
2018-10-15T09:49:00.226Z,47.45
2018-10-15T09:50:01.288Z,48.03
2018-10-15T09:51:02.149Z,48.22
2018-10-15T09:52:01.282Z,47.93
2018-10-15T09:53:01.831Z,48.32
2018-10-15T09:54:01.623Z,48.78
2018-10-15T09:55:03.267Z,48.30
2018-10-15T09:56:03.080Z,48.20
2018-10-15T09:57:02.275Z,48.00
2018-10-15T09:58:03.955Z,48.20
2018-10-15T09:59:03.360Z,48.49
2018-10-15T10:00:03.824Z,48.39
2018-10-15T10:01:04.674Z,48.97
2018-10-15T10:02:04.443Z,47.91
2018-10-15T10:03:04.178Z,49.44
2018-10-15T10:04:02.813Z,50.02
2018-10-15T10:05:03.573Z,48.95
2018-10-15T10:06:04.584Z,49.15
2018-10-15T10:07:03.885Z,49.46
2018-10-15T10:08:04.466Z,48.88
2018-10-15T10:09:04.455Z,48.49
2018-10-15T10:10:05.884Z,48.08
2018-10-15T10:11:06.051Z,48.20
2018-10-15T10:12:05.691Z,47.83
2018-10-15T10:13:05.218Z,47.86
2018-10-15T10:14:04.311Z,47.38
2018-10-15T10:15:05.940Z,47.08
2018-10-15T10:16:04.949Z,46.91
2018-10-15T10:17:05.294Z,45.38
2018-10-15T10:18:04.302Z,44.89
2018-10-15T10:19:05.909Z,43.92
2018-10-15T10:20:05.644Z,45.01
2018-10-15T10:21:06.925Z,43.96
2018-10-15T10:22:07.084Z,42.50
2018-10-15T10:23:08.707Z,40.78
2018-10-15T10:24:09.165Z,39.72
2018-10-15T10:25:09.253Z,39.72
2018-10-15T10:26:05.606Z,39.75
2018-10-15T10:27:05.743Z,40.52
2018-10-15T10:28:08.414Z,39.84
2018-10-15T10:29:09.046Z,39.84
2018-10-15T10:30:09.555Z,38.87
2018-10-15T10:31:09.000Z,39.55
2018-10-15T10:32:08.967Z,39.82
2018-10-15T10:33:09.851Z,39.94
2018-10-15T10:34:09.882Z,38.96
2018-10-15T10:35:08.648Z,38.87
2018-10-15T10:36:07.249Z,38.79
2018-10-15T10:37:10.720Z,38.89
2018-10-15T10:38:09.397Z,38.51
2018-10-15T10:39:07.733Z,38.32
2018-10-15T10:40:08.028Z,38.34
2018-10-15T10:41:08.092Z,37.37
2018-10-15T10:42:08.292Z,37.19
2018-10-15T10:43:08.426Z,36.41
2018-10-15T10:44:08.613Z,36.60
2018-10-15T10:45:08.830Z,36.43
2018-10-15T10:46:09.089Z,35.64
2018-10-15T10:47:10.291Z,35.85
2018-10-15T10:48:10.527Z,35.85
2018-10-15T10:49:11.245Z,35.77
2018-10-15T10:50:12.074Z,34.60
2018-10-15T10:51:13.346Z,34.03
2018-10-15T10:52:11.826Z,33.84
2018-10-15T10:53:12.140Z,34.24
2018-10-15T10:54:12.945Z,33.85
2018-10-15T10:55:13.060Z,33.07
2018-10-15T10:56:10.650Z,33.18
2018-10-15T10:57:10.832Z,33.09
2018-10-15T10:58:11.298Z,33.58
2018-10-15T10:59:11.253Z,32.81
2018-10-15T11:00:11.453Z,31.83
2018-10-15T11:01:11.642Z,31.83
2018-10-15T11:02:11.938Z,31.73
2018-10-15T11:03:12.008Z,31.34
2018-10-15T11:04:12.191Z,31.83
2018-10-15T11:05:12.392Z,32.53
2018-10-15T11:06:12.585Z,31.06
2018-10-15T11:07:12.772Z,31.06
2018-10-15T11:08:13.094Z,31.06
2018-10-15T11:09:13.148Z,30.87
2018-10-15T11:10:13.334Z,30.88
2018-10-15T11:11:13.539Z,30.29
2018-10-15T11:12:13.716Z,29.80
2018-10-15T11:13:13.905Z,29.80
2018-10-15T11:14:14.102Z,30.00
2018-10-15T11:15:14.289Z,30.70
2018-10-15T11:16:14.476Z,30.21
2018-10-15T11:17:14.758Z,29.93
2018-10-15T11:18:14.835Z,29.73
2018-10-15T11:19:15.037Z,28.34
2018-10-15T11:20:15.230Z,28.54
2018-10-15T11:21:15.499Z,29.63
2018-10-15T11:22:15.790Z,29.05
2018-10-15T11:23:15.773Z,29.06
2018-10-15T11:24:16.039Z,28.37
2018-10-15T11:25:16.138Z,27.59
2018-10-15T11:26:16.331Z,27.49
2018-10-15T11:27:16.524Z,27.00
2018-10-15T11:28:16.721Z,26.90
2018-10-15T11:29:16.913Z,27.49
2018-10-15T11:30:17.098Z,27.60
2018-10-15T11:31:17.290Z,27.59
2018-10-15T11:32:17.495Z,28.39
2018-10-15T11:33:17.694Z,27.89
2018-10-15T11:34:17.966Z,27.99
2018-10-15T11:35:18.170Z,27.01
2018-10-15T11:36:18.269Z,27.60
2018-10-15T11:37:18.387Z,28.29
2018-10-15T11:38:18.467Z,28.68
2018-10-15T11:39:18.650Z,28.78
2018-10-15T11:40:18.845Z,29.07
2018-10-15T11:41:19.053Z,28.57
2018-10-15T11:42:19.226Z,28.37
2018-10-15T11:43:19.444Z,28.27
2018-10-15T11:44:19.651Z,28.57
2018-10-15T11:45:19.789Z,28.34
2018-10-15T11:46:19.984Z,28.74
2018-10-15T11:47:20.167Z,29.22
2018-10-15T11:48:20.368Z,29.34
2018-10-15T11:49:20.569Z,28.96
2018-10-15T11:50:20.762Z,28.67
2018-10-15T11:51:21.018Z,29.35
2018-10-15T11:52:21.144Z,29.07
2018-10-15T11:53:21.340Z,28.29
2018-10-15T11:54:21.524Z,28.58
2018-10-15T11:55:21.709Z,28.88
2018-10-15T11:56:21.909Z,28.39
2018-10-15T11:57:22.098Z,28.58
2018-10-15T11:58:22.307Z,29.07
2018-10-15T11:59:22.570Z,29.06
2018-10-15T12:00:22.672Z,28.49
2018-10-15T12:01:22.900Z,27.70
2018-10-15T12:02:23.725Z,27.40
2018-10-15T12:03:23.317Z,27.60
2018-10-15T12:04:24.926Z,27.89
2018-10-15T12:05:25.738Z,27.80
2018-10-15T12:06:24.177Z,28.39
2018-10-15T12:07:24.985Z,27.80
2018-10-15T12:08:25.650Z,27.50
2018-10-15T12:09:25.348Z,27.60
2018-10-15T12:10:26.572Z,27.60
2018-10-15T12:11:25.561Z,27.50
2018-10-15T12:12:26.086Z,27.60
2018-10-15T12:13:26.867Z,27.80
2018-10-15T12:14:25.914Z,26.80
2018-10-15T12:15:27.184Z,27.00
2018-10-15T12:16:26.036Z,27.19
2018-10-15T12:17:27.426Z,27.47
2018-10-15T12:18:28.446Z,28.75
2018-10-15T12:19:27.260Z,28.45
2018-10-15T12:20:28.042Z,28.95
2018-10-15T12:21:27.269Z,28.65
2018-10-15T12:22:26.798Z,28.55
2018-10-15T12:23:26.746Z,28.36
2018-10-15T12:24:27.685Z,28.36
2018-10-15T12:25:28.107Z,28.74
2018-10-15T12:26:27.862Z,29.03
2018-10-15T12:27:28.826Z,29.03
2018-10-15T12:28:29.464Z,29.22
2018-10-15T12:29:28.454Z,29.31
2018-10-15T12:30:28.591Z,29.98
2018-10-15T12:31:27.886Z,30.77
2018-10-15T12:32:28.423Z,30.85
2018-10-15T12:33:29.660Z,30.25
2018-10-15T12:34:29.743Z,30.74
2018-10-15T12:35:29.920Z,31.20
2018-10-15T12:36:29.054Z,31.57
2018-10-15T12:37:29.407Z,31.95
2018-10-15T12:38:30.934Z,33.40
2018-10-15T12:39:29.922Z,34.06
2018-10-15T12:40:30.358Z,34.52
2018-10-15T12:41:30.150Z,34.81
2018-10-15T12:42:29.635Z,35.86
2018-10-15T12:43:30.211Z,37.79
2018-10-15T12:44:30.569Z,38.17
2018-10-15T12:45:30.880Z,38.05
2018-10-15T12:46:30.869Z,38.03
2018-10-15T12:47:31.826Z,38.11
2018-10-15T12:48:31.811Z,38.89
2018-10-15T12:49:30.787Z,39.86
2018-10-15T12:50:31.705Z,39.65
2018-10-15T12:51:31.788Z,38.96
2018-10-15T12:52:32.418Z,38.95
2018-10-15T12:53:32.418Z,38.85
2018-10-15T12:54:32.525Z,39.04